Terminal Aerodrome Forecast
Issued by NWS

Home | Current Version | Previous Version | Graphics & Text | Print | Product List | Glossary On
Versions: 1 2 3 4 5 6 7 8 9 10 11 12 13 14 15 16 17 18
378
FTUS43 KBIS 201126
TAFMOT
TAF
KMOT 201126Z 2012/2112 21011KT P6SM SKC
     FM201800 21017G26KT P6SM FEW060 FEW250
     FM210100 19009KT P6SM FEW100 SCT200
     FM210400 15008KT P6SM FEW110 SCT120=

USA.gov is the U.S. government's official web portal to all federal, state and local government web resources and services.